KMLB/MLB METAR and TAF weather

Enter ICAO airport designator
Station Type Date Time Source
KMLB METAR 2019/12/10 18:53 UTC NOAA

KMLB 101853Z 13008G15KT 10SM FEW042 FEW050 SCT070 27/22 A3007 RMK AO2 SLP180 T02670222


Station Type Date Time Source
KMLB Decoded METAR 2019/12/10 18:53 UTC NOAA

MELBOURNE INTERNATIONAL, FL, United States (KMLB) 28-06N 080-39W 10M
Dec 10, 2019 - 01:53 PM EST / 2019.12.10 1853 UTC
Wind: from the SE (130 degrees) at 9 MPH (8 KT) gusting to 17 MPH (15 KT):0
Visibility: 10 mile(s):0
Sky conditions: partly cloudy
Temperature: 80.1 F (26.7 C)
Dew Point: 72.0 F (22.2 C)
Relative Humidity: 76%
Pressure (altimeter): 30.07 in. Hg (1018 hPa)
ob: KMLB 101853Z 13008G15KT 10SM FEW042 FEW050 SCT070 27/22 A3007 RMK AO2 SLP180 T02670222
cycle: 19

Station Type Date Time Source
KMLB TAF 2019/12/10 18:28 UTC NOAA

TAF KMLB 101726Z 1018/1118 19010KT P6SM SCT035 SCT060
FM110000 14006KT P6SM VCSH SCT035 SCT100
FM110800 VRB02KT 6SM BR MIFG FEW010 SCT020
TEMPO 1110/1113 3SM BR SCT010 BKN020
FM111500 36008KT P6SM SCT015 BKN035

Example: see airport list